createdAt,value
2023-03-12T00:01:33.590Z,9.70
2023-03-12T00:05:36.379Z,9.20
2023-03-12T00:09:35.410Z,9.50
2023-03-12T00:13:33.353Z,9.80
2023-03-12T00:17:33.318Z,9.80
2023-03-12T00:21:33.406Z,9.60
2023-03-12T00:25:33.358Z,9.40
2023-03-12T00:37:33.564Z,10.90
2023-03-12T00:41:33.699Z,11.70
2023-03-12T00:45:33.731Z,11.40
2023-03-12T00:49:33.423Z,11.60
2023-03-12T00:53:33.790Z,10.60
2023-03-12T00:57:33.496Z,10.10
2023-03-12T01:01:33.564Z,10.30
2023-03-12T01:05:36.707Z,9.80
2023-03-12T01:13:33.529Z,9.50
2023-03-12T01:17:33.565Z,9.60
2023-03-12T01:21:33.500Z,9.50
2023-03-12T01:25:34.935Z,9.70
2023-03-12T01:29:33.509Z,9.40
2023-03-12T01:33:33.586Z,9.70
2023-03-12T01:37:33.719Z,9.60
2023-03-12T01:41:33.596Z,10.40
2023-03-12T01:45:53.326Z,10.30
2023-03-12T01:53:33.761Z,9.90
2023-03-12T01:57:36.349Z,10.30
2023-03-12T02:01:34.272Z,10.10
2023-03-12T02:09:37.726Z,10.70
2023-03-12T02:13:33.647Z,10.70
2023-03-12T02:17:35.290Z,10.80
2023-03-12T02:21:36.174Z,10.20
2023-03-12T02:25:37.497Z,10.50
2023-03-12T02:29:36.606Z,10.30
2023-03-12T02:37:33.727Z,10.40
2023-03-12T02:41:37.378Z,9.90
2023-03-12T02:45:35.130Z,10.10
2023-03-12T02:49:34.635Z,9.90
2023-03-12T02:53:33.872Z,10.50
2023-03-12T02:57:36.536Z,10.40
2023-03-12T03:01:34.321Z,9.80
2023-03-12T03:05:36.127Z,9.00
2023-03-12T03:09:33.826Z,8.50
2023-03-12T03:13:34.329Z,9.20
2023-03-12T03:17:34.039Z,9.80
2023-03-12T03:33:35.767Z,9.70
2023-03-12T03:41:34.244Z,9.20
2023-03-12T03:45:33.949Z,8.60
2023-03-12T03:53:34.146Z,8.80
2023-03-12T03:57:33.912Z,8.50
2023-03-12T04:01:33.924Z,8.00
2023-03-12T04:05:33.970Z,7.70
2023-03-12T04:09:34.063Z,7.90
2023-03-12T04:13:34.001Z,7.80
2023-03-12T04:17:34.132Z,8.00
2023-03-12T04:21:33.973Z,7.90
2023-03-12T04:25:34.503Z,7.90
2023-03-12T04:29:33.985Z,7.10
2023-03-12T04:37:34.026Z,7.50
2023-03-12T04:41:35.039Z,7.90
2023-03-12T04:49:34.152Z,7.90
2023-03-12T04:53:34.319Z,7.30
2023-03-12T04:57:34.473Z,7.10
2023-03-12T05:05:34.820Z,7.10
2023-03-12T05:09:34.190Z,6.70
2023-03-12T05:17:34.239Z,6.70
2023-03-12T05:21:34.432Z,8.00
2023-03-12T05:25:38.415Z,7.40
2023-03-12T05:29:34.557Z,7.50
2023-03-12T05:33:34.185Z,7.00
2023-03-12T05:37:34.167Z,7.60
2023-03-12T05:41:34.419Z,6.80
2023-03-12T05:49:34.483Z,8.20
2023-03-12T05:53:34.406Z,7.40
2023-03-12T05:57:34.258Z,7.00
2023-03-12T06:05:35.260Z,7.40
2023-03-12T06:09:34.814Z,7.70
2023-03-12T06:13:34.718Z,7.20
2023-03-12T06:17:34.264Z,7.40
2023-03-12T06:21:35.160Z,7.50
2023-03-12T06:25:34.363Z,9.00
2023-03-12T06:33:34.869Z,7.40
2023-03-12T06:37:34.457Z,8.90
2023-03-12T06:45:34.452Z,8.20
2023-03-12T06:53:34.781Z,8.40
2023-03-12T07:01:34.592Z,8.10
2023-03-12T07:05:34.615Z,7.90
2023-03-12T07:09:34.601Z,8.70
2023-03-12T07:13:34.803Z,8.90
2023-03-12T07:17:34.870Z,9.60
2023-03-12T07:21:34.467Z,8.70
2023-03-12T07:25:35.870Z,9.00
2023-03-12T07:29:34.797Z,9.40
2023-03-12T07:33:34.989Z,8.40
2023-03-12T07:37:34.517Z,8.90
2023-03-12T07:41:36.434Z,8.50
2023-03-12T07:45:34.518Z,8.20
2023-03-12T07:49:34.717Z,8.70
2023-03-12T07:53:34.628Z,8.30
2023-03-12T07:57:35.040Z,8.80
2023-03-12T08:01:34.648Z,8.50
2023-03-12T08:05:34.722Z,8.00
2023-03-12T08:09:34.784Z,8.70
2023-03-12T08:13:35.021Z,8.70
2023-03-12T08:21:34.706Z,8.00
2023-03-12T08:25:35.802Z,8.20
2023-03-12T08:29:34.751Z,7.50
2023-03-12T08:33:34.941Z,9.00
2023-03-12T08:37:35.151Z,8.20
2023-03-12T08:41:34.660Z,7.50
2023-03-12T08:45:35.518Z,8.00
2023-03-12T08:49:34.666Z,7.30
2023-03-12T08:53:35.971Z,7.20
2023-03-12T08:57:34.743Z,7.60
2023-03-12T09:01:35.078Z,7.00
2023-03-12T09:05:34.803Z,8.40
2023-03-12T09:09:35.325Z,7.20
2023-03-12T09:13:54.939Z,6.50
2023-03-12T09:17:35.003Z,7.50
2023-03-12T09:21:34.745Z,7.60
2023-03-12T09:25:34.923Z,7.60
2023-03-12T09:29:37.985Z,6.60
2023-03-12T09:33:35.152Z,7.70
2023-03-12T09:37:34.893Z,7.20
2023-03-12T09:41:38.373Z,6.60
2023-03-12T09:45:37.716Z,6.80
2023-03-12T09:49:39.846Z,7.10
2023-03-12T09:53:40.186Z,7.20
2023-03-12T09:57:35.110Z,7.00
2023-03-12T10:01:40.900Z,7.30
2023-03-12T10:05:39.685Z,7.40
2023-03-12T10:09:45.107Z,7.00
2023-03-12T10:13:46.512Z,6.40
2023-03-12T10:17:45.534Z,6.40
2023-03-12T10:21:44.609Z,5.70
2023-03-12T10:25:41.321Z,6.70
2023-03-12T10:29:41.525Z,6.80
2023-03-12T10:33:43.850Z,5.60
2023-03-12T10:37:39.709Z,7.00
2023-03-12T10:41:35.641Z,6.20
2023-03-12T10:45:41.043Z,5.90
2023-03-12T10:49:36.223Z,5.90
2023-03-12T10:53:36.476Z,5.90
2023-03-12T10:57:39.831Z,6.20
2023-03-12T11:01:37.411Z,6.80
2023-03-12T11:05:44.646Z,6.70
2023-03-12T11:09:35.258Z,6.10
2023-03-12T11:13:37.107Z,6.10
2023-03-12T11:17:35.232Z,6.10
2023-03-12T11:21:37.247Z,5.80
2023-03-12T11:25:35.305Z,5.60
2023-03-12T11:29:39.021Z,6.00
2023-03-12T11:33:35.430Z,5.50
2023-03-12T11:37:45.390Z,6.50
2023-03-12T11:41:44.731Z,5.90
2023-03-12T11:45:44.839Z,6.80
2023-03-12T11:49:49.692Z,6.50
2023-03-12T11:53:48.976Z,6.70
2023-03-12T11:57:46.721Z,6.30
2023-03-12T12:01:49.471Z,7.40
2023-03-12T12:09:43.856Z,5.80
2023-03-12T12:13:44.700Z,6.10
2023-03-12T12:17:50.692Z,6.00
2023-03-12T12:25:48.843Z,5.20
2023-03-12T12:29:51.554Z,6.10
2023-03-12T12:33:49.803Z,5.60
2023-03-12T12:37:42.547Z,6.40
2023-03-12T12:41:39.370Z,6.70
2023-03-12T12:45:38.770Z,6.50
2023-03-12T12:49:42.842Z,6.50
2023-03-12T12:53:43.014Z,6.30
2023-03-12T12:57:39.839Z,6.20
2023-03-12T13:01:36.970Z,5.80
2023-03-12T13:05:49.301Z,5.60
2023-03-12T13:17:55.263Z,7.70
2023-03-12T13:21:39.487Z,6.20
2023-03-12T13:25:50.167Z,4.90
2023-03-12T13:29:38.705Z,6.80
2023-03-12T13:33:39.975Z,5.40
2023-03-12T13:37:55.815Z,5.60
2023-03-12T13:41:37.608Z,6.20
2023-03-12T13:45:49.612Z,5.40
2023-03-12T13:49:40.982Z,5.60
2023-03-12T13:53:40.477Z,6.00
2023-03-12T13:57:39.826Z,5.80
2023-03-12T14:01:40.226Z,5.80
2023-03-12T14:05:44.901Z,5.30
2023-03-12T14:09:43.870Z,5.90
2023-03-12T14:13:51.634Z,5.20
2023-03-12T14:17:37.304Z,5.20
2023-03-12T14:21:40.160Z,5.60
2023-03-12T14:25:38.753Z,4.90
2023-03-12T14:29:37.978Z,5.30
2023-03-12T14:33:49.522Z,5.40
2023-03-12T14:37:40.447Z,5.10
2023-03-12T14:41:41.413Z,5.50
2023-03-12T14:45:39.072Z,5.50
2023-03-12T14:49:39.748Z,4.60
2023-03-12T14:53:37.175Z,5.40
2023-03-12T14:57:35.830Z,5.00
2023-03-12T15:05:36.042Z,4.10
2023-03-12T15:09:36.240Z,3.80
2023-03-12T15:13:37.016Z,4.30
2023-03-12T15:17:36.556Z,3.60
2023-03-12T15:21:36.167Z,4.10
2023-03-12T15:25:35.905Z,3.60
2023-03-12T15:29:40.788Z,3.50
2023-03-12T15:33:35.827Z,5.70
2023-03-12T15:37:37.208Z,3.30
2023-03-12T15:41:42.094Z,3.60
2023-03-12T15:45:38.235Z,4.00
2023-03-12T15:49:37.211Z,3.70
2023-03-12T15:53:35.967Z,4.30
2023-03-12T16:01:45.997Z,4.50
2023-03-12T16:05:38.914Z,4.30
2023-03-12T16:09:36.223Z,4.00
2023-03-12T16:13:36.353Z,4.00
2023-03-12T16:17:36.113Z,3.80
2023-03-12T16:21:36.034Z,2.80
2023-03-12T16:29:38.875Z,3.20
2023-03-12T16:33:36.060Z,2.70
2023-03-12T16:37:36.125Z,3.00
2023-03-12T16:41:36.125Z,2.70
2023-03-12T16:45:36.746Z,3.10
2023-03-12T16:53:36.246Z,2.20
2023-03-12T16:57:38.785Z,2.20
2023-03-12T17:01:36.366Z,2.20
2023-03-12T17:05:36.047Z,2.30
2023-03-12T17:13:36.175Z,2.20
2023-03-12T17:17:36.125Z,2.60
2023-03-12T17:21:36.797Z,1.70
2023-03-12T17:25:38.813Z,1.70
2023-03-12T17:29:36.272Z,2.10
2023-03-12T17:33:37.231Z,2.20
2023-03-12T17:41:36.446Z,3.10
2023-03-12T17:45:36.331Z,2.40
2023-03-12T17:49:36.507Z,2.60
2023-03-12T17:53:38.464Z,3.80
2023-03-12T17:57:36.827Z,2.40
2023-03-12T18:01:36.309Z,2.50
2023-03-12T18:05:37.501Z,2.40
2023-03-12T18:09:36.231Z,2.60
2023-03-12T18:13:36.369Z,2.70
2023-03-12T18:17:36.363Z,3.00
2023-03-12T18:21:36.385Z,2.90
2023-03-12T18:25:37.032Z,3.80
2023-03-12T18:29:36.476Z,3.80
2023-03-12T18:33:37.042Z,3.80
2023-03-12T18:37:36.386Z,3.50
2023-03-12T18:45:39.943Z,3.90
2023-03-12T18:49:36.365Z,3.60
2023-03-12T18:53:36.456Z,3.00
2023-03-12T18:57:36.309Z,2.80
2023-03-12T19:01:36.655Z,3.50
2023-03-12T19:05:36.524Z,3.60
2023-03-12T19:09:36.424Z,5.20
2023-03-12T19:13:36.783Z,3.10
2023-03-12T19:17:36.603Z,3.30
2023-03-12T19:25:36.753Z,3.00
2023-03-12T19:33:37.134Z,3.50
2023-03-12T19:37:36.827Z,3.80
2023-03-12T19:41:36.641Z,3.00
2023-03-12T19:49:36.772Z,3.50
2023-03-12T19:53:37.038Z,3.70
2023-03-12T19:57:37.501Z,3.00
2023-03-12T20:05:36.683Z,3.20
2023-03-12T20:09:36.632Z,2.90
2023-03-12T20:13:37.739Z,3.30
2023-03-12T20:17:36.675Z,3.60
2023-03-12T20:21:36.871Z,3.40
2023-03-12T20:25:38.814Z,3.00
2023-03-12T20:33:37.394Z,2.80
2023-03-12T20:37:36.653Z,3.30
2023-03-12T20:41:36.679Z,3.20
2023-03-12T20:49:36.758Z,2.70
2023-03-12T20:53:36.738Z,2.70
2023-03-12T20:57:36.763Z,2.70
2023-03-12T21:01:37.219Z,2.10
2023-03-12T21:05:36.768Z,2.90
2023-03-12T21:09:36.991Z,2.40
2023-03-12T21:13:36.792Z,2.10
2023-03-12T21:17:38.780Z,1.60
2023-03-12T21:25:39.177Z,1.70
2023-03-12T21:29:36.790Z,1.90
2023-03-12T21:33:37.334Z,1.40
2023-03-12T21:37:36.808Z,1.60
2023-03-12T21:41:37.356Z,1.70
2023-03-12T21:45:39.273Z,1.60
2023-03-12T21:49:37.090Z,1.80
2023-03-12T21:53:37.548Z,1.40
2023-03-12T21:57:37.062Z,1.40
2023-03-12T22:09:36.955Z,1.40
2023-03-12T22:17:37.028Z,1.10
2023-03-12T22:21:37.350Z,1.30
2023-03-12T22:25:36.909Z,1.20
2023-03-12T22:29:36.924Z,1.60
2023-03-12T22:33:37.223Z,1.40
2023-03-12T22:37:36.984Z,1.40
2023-03-12T22:41:37.170Z,1.40
2023-03-12T22:45:36.991Z,1.20
2023-03-12T22:53:37.653Z,1.40
2023-03-12T22:57:37.506Z,1.40
2023-03-12T23:01:37.358Z,1.40
2023-03-12T23:05:37.018Z,1.70
2023-03-12T23:09:37.209Z,1.50
2023-03-12T23:13:40.362Z,1.50
2023-03-12T23:17:37.343Z,1.50
2023-03-12T23:21:37.091Z,2.00
2023-03-12T23:25:37.383Z,1.50
2023-03-12T23:29:37.148Z,1.70
2023-03-12T23:33:37.284Z,1.30
2023-03-12T23:37:37.128Z,1.50
2023-03-12T23:41:37.585Z,1.60
2023-03-12T23:45:37.149Z,1.50
2023-03-12T23:49:37.239Z,1.30
2023-03-12T23:53:38.652Z,1.70
2023-03-12T23:57:37.390Z,1.50
